Time;durP1;ratioP1;P1;durP2;ratioP2;P2;SDS_P1;SDS_P2;PMS_P1;PMS_P2;Temp;Humidity;BMP_temperature;BMP_pressure;BME280_temperature;BME280_humidity;BME280_pressure;Samples;Min_cycle;Max_cycle;Signal;HPM_P1;HPM_P2
2022/04/18 00:01:05;;;;;;;7.10;2.00;;;;;;;10.40;30.75;98959.50;4472679;32;20341;-88
2022/04/18 00:03:30;;;;;;;5.80;1.80;;;;;;;10.33;30.71;98958.94;4458492;32;20131;-92
2022/04/18 00:05:56;;;;;;;5.60;1.83;;;;;;;10.27;30.49;98961.88;4472915;32;20080;-94
2022/04/18 00:08:21;;;;;;;6.12;1.85;;;;;;;10.33;30.33;98952.84;4472556;32;20085;-94
2022/04/18 00:10:46;;;;;;;6.80;2.05;;;;;;;10.41;29.88;98951.53;4458411;32;20451;-95
2022/04/18 00:13:12;;;;;;;5.10;1.70;;;;;;;10.59;29.75;98955.00;4445420;32;20157;-93
2022/04/18 00:15:37;;;;;;;4.93;1.77;;;;;;;10.60;29.64;98953.19;4472527;32;20165;-89
2022/04/18 00:18:03;;;;;;;7.07;1.92;;;;;;;10.43;30.35;98949.66;4472459;32;20115;-95
2022/04/18 00:20:29;;;;;;;6.25;1.90;;;;;;;10.33;29.94;98945.78;4472486;32;20364;-89
2022/04/18 00:22:54;;;;;;;5.28;2.00;;;;;;;10.39;30.07;98944.63;4472497;32;20120;-86
2022/04/18 00:25:20;;;;;;;6.10;1.90;;;;;;;10.45;30.27;98939.06;4472541;32;20432;-92
2022/04/18 00:27:45;;;;;;;6.07;2.15;;;;;;;10.43;30.22;98933.87;4451705;32;20132;-94
2022/04/18 00:30:11;;;;;;;7.37;1.80;;;;;;;9.81;31.02;98938.69;4443679;32;20097;-95
2022/04/18 00:32:36;;;;;;;6.72;1.77;;;;;;;10.37;30.19;98930.69;4445296;32;20346;-95
2022/04/18 00:35:04;;;;;;;6.65;1.87;;;;;;;10.30;29.98;98937.19;4445771;32;20132;-94
2022/04/18 00:37:30;;;;;;;7.05;2.10;;;;;;;10.22;30.60;98935.78;4435618;32;20069;-95
2022/04/18 00:39:56;;;;;;;5.32;1.87;;;;;;;10.42;30.44;98931.31;4462063;32;20085;-91
2022/04/18 00:42:21;;;;;;;6.72;2.10;;;;;;;10.28;31.10;98923.25;4459962;32;20093;-91
2022/04/18 00:44:46;;;;;;;6.57;1.85;;;;;;;10.42;30.45;98932.16;4448971;32;20096;-96
2022/04/18 00:47:12;;;;;;;6.18;2.20;;;;;;;10.51;29.78;98925.56;4431901;32;20113;-96
2022/04/18 00:49:38;;;;;;;5.43;1.90;;;;;;;10.55;29.97;98927.09;4455662;32;20136;-94
2022/04/18 00:52:05;;;;;;;6.22;2.20;;;;;;;10.61;29.79;98925.94;4446495;32;20094;-94
2022/04/18 00:54:32;;;;;;;6.25;2.10;;;;;;;10.66;30.09;98918.63;4447025;32;20119;-96
2022/04/18 00:56:58;;;;;;;6.12;2.33;;;;;;;10.77;29.86;98915.44;4449266;32;20059;-95
2022/04/18 00:59:23;;;;;;;7.55;1.90;;;;;;;10.73;31.13;98914.75;4422821;32;20147;-96
2022/04/18 01:01:48;;;;;;;5.70;1.92;;;;;;;10.82;30.63;98911.63;4443771;32;20105;-95
2022/04/18 01:04:14;;;;;;;6.30;1.90;;;;;;;10.90;31.08;98911.22;4430536;32;20142;-94
2022/04/18 01:06:40;;;;;;;8.32;2.12;;;;;;;10.86;31.69;98898.28;4430135;32;20119;-94
2022/04/18 01:09:06;;;;;;;7.30;2.53;;;;;;;10.93;30.55;98899.62;4430920;32;20089;-96
2022/04/18 01:11:32;;;;;;;5.53;1.90;;;;;;;10.90;31.17;98897.19;4430266;32;20101;-94
2022/04/18 01:14:00;;;;;;;7.25;2.15;;;;;;;10.94;31.96;98890.81;4442180;32;20123;-95
2022/04/18 01:16:26;;;;;;;5.82;2.00;;;;;;;10.78;31.32;98890.78;4427614;32;20829;-96
2022/04/18 01:18:51;;;;;;;6.85;2.12;;;;;;;10.91;31.23;98888.31;4441242;32;20104;-94
2022/04/18 01:21:19;;;;;;;6.62;1.80;;;;;;;10.85;30.77;98886.03;4440836;32;20093;-95
2022/04/18 01:23:45;;;;;;;6.78;1.92;;;;;;;10.78;30.79;98882.88;4440759;32;20106;-94
2022/04/18 01:29:03;;;;;;;6.82;1.75;;;;;;;10.79;30.44;98872.25;4440877;32;20199;-93
2022/04/18 01:31:30;;;;;;;5.62;1.90;;;;;;;10.84;30.50;98874.66;4427736;32;20153;-94
2022/04/18 01:33:56;;;;;;;7.10;1.62;;;;;;;10.83;32.04;98878.19;4440795;32;20116;-93
2022/04/18 01:36:22;;;;;;;5.53;1.80;;;;;;;10.70;31.18;98866.63;4426778;32;20143;-93
2022/04/18 01:38:48;;;;;;;4.32;1.70;;;;;;;10.44;31.46;98871.50;4427120;32;20109;-94
2022/04/18 01:41:13;;;;;;;7.03;1.73;;;;;;;10.12;31.27;98866.13;4427638;32;20128;-96
2022/04/18 01:43:39;;;;;;;7.70;1.90;;;;;;;10.41;31.20;98863.75;4441231;32;20108;-94
2022/04/18 01:46:04;;;;;;;6.85;2.00;;;;;;;10.63;31.60;98863.47;4441357;32;20085;-95
2022/04/18 01:48:29;;;;;;;5.93;2.05;;;;;;;10.45;31.58;98867.06;4441644;32;20078;-94
2022/04/18 01:50:55;;;;;;;7.40;2.17;;;;;;;10.51;31.25;98861.50;4442257;32;20449;-96
2022/04/18 01:53:20;;;;;;;5.18;1.85;;;;;;;10.21;31.43;98862.12;4442318;32;20105;-96
2022/04/18 01:55:46;;;;;;;6.82;2.42;;;;;;;10.46;31.55;98855.63;4441617;32;20157;-94
2022/04/18 01:58:11;;;;;;;7.20;2.00;;;;;;;10.49;31.51;98852.81;4442491;32;20089;-95
2022/04/18 02:00:37;;;;;;;7.18;2.40;;;;;;;10.35;31.40;98849.16;4441300;32;20101;-94
2022/04/18 02:03:02;;;;;;;7.03;1.90;;;;;;;10.36;31.56;98852.63;4442487;32;20125;-95
2022/04/18 02:05:28;;;;;;;6.03;2.00;;;;;;;10.38;31.58;98848.13;4441107;32;20109;-95
2022/04/18 02:07:53;;;;;;;6.32;2.10;;;;;;;10.39;31.75;98848.06;4440923;32;20085;-94
2022/04/18 02:10:19;;;;;;;8.00;2.40;;;;;;;10.33;31.81;98842.25;4441882;32;20156;-95
2022/04/18 02:12:44;;;;;;;7.53;2.25;;;;;;;10.41;31.67;98845.31;4440341;32;20150;-93
2022/04/18 02:15:10;;;;;;;5.65;1.80;;;;;;;10.07;31.95;98846.22;4442312;32;20124;-96
2022/04/18 02:17:35;;;;;;;5.95;1.90;;;;;;;10.25;31.60;98842.63;4440395;32;20093;-95
2022/04/18 02:20:01;;;;;;;5.65;1.90;;;;;;;9.93;32.21;98839.88;4441947;32;20089;-94
2022/04/18 02:22:27;;;;;;;6.25;1.90;;;;;;;10.23;32.13;98834.78;4441637;32;20131;-94
2022/04/18 02:24:56;;;;;;;7.28;2.40;;;;;;;10.25;32.28;98821.53;4439625;32;20468;-95
2022/04/18 02:27:21;;;;;;;6.28;1.92;;;;;;;10.28;32.25;98824.03;4440901;32;20165;-95
2022/04/18 02:29:47;;;;;;;6.28;1.92;;;;;;;10.13;32.35;98817.78;4440395;32;20094;-94
2022/04/18 02:34:56;;;;;;;7.68;1.90;;;;;;;10.06;32.72;98816.38;4439889;32;20150;-94
2022/04/18 02:37:22;;;;;;;5.65;1.62;;;;;;;10.22;32.22;98816.47;4439395;32;20098;-94
2022/04/18 02:39:47;;;;;;;5.07;1.87;;;;;;;10.10;32.36;98814.44;4440967;32;20109;-95
2022/04/18 02:42:13;;;;;;;5.22;1.80;;;;;;;10.01;32.67;98818.44;4440930;32;20094;-96
2022/04/18 02:44:38;;;;;;;5.53;1.77;;;;;;;9.93;32.74;98816.19;4429912;32;20467;-96
2022/04/18 02:47:04;;;;;;;6.22;1.90;;;;;;;10.11;32.72;98805.63;4442515;32;20069;-95
2022/04/18 02:49:31;;;;;;;5.57;1.87;;;;;;;10.26;32.51;98812.72;4440106;32;20105;-95
2022/04/18 02:51:56;;;;;;;7.03;2.30;;;;;;;10.21;33.17;98804.22;4432418;32;20062;-95
2022/04/18 02:54:22;;;;;;;7.03;1.85;;;;;;;10.34;33.05;98799.19;4442076;32;20142;-94
2022/04/18 02:56:47;;;;;;;7.75;1.83;;;;;;;10.29;32.82;98806.44;4440058;32;20104;-94
2022/04/18 02:59:12;;;;;;;6.82;2.30;;;;;;;10.40;32.83;98796.22;4438844;32;20236;-94
2022/04/18 03:01:38;;;;;;;5.25;1.70;;;;;;;10.43;32.99;98791.66;4440573;32;20361;-96
2022/04/18 03:04:04;;;;;;;4.65;1.65;;;;;;;10.50;32.72;98789.53;4440326;32;20077;-95
2022/04/18 03:06:29;;;;;;;6.35;1.98;;;;;;;10.49;32.94;98790.47;4440398;32;20453;-96
2022/04/18 03:08:55;;;;;;;7.07;2.03;;;;;;;10.52;33.03;98784.19;4443628;32;20098;-96
2022/04/18 03:11:20;;;;;;;6.65;2.37;;;;;;;10.55;32.67;98784.03;4441839;32;20102;-95
2022/04/18 03:13:46;;;;;;;7.62;1.95;;;;;;;10.56;32.91;98785.69;4440445;32;20120;-94
2022/04/18 03:16:13;;;;;;;6.30;1.87;;;;;;;10.37;32.89;98784.09;4441035;32;20093;-94
2022/04/18 03:18:38;;;;;;;6.78;2.00;;;;;;;10.46;32.79;98788.00;4439670;32;20178;-95
2022/04/18 03:21:04;;;;;;;6.75;1.98;;;;;;;10.37;32.85;98783.22;4440066;32;20449;-95
2022/04/18 03:23:30;;;;;;;5.28;1.80;;;;;;;10.45;32.76;98788.06;4439908;32;20115;-95
2022/04/18 03:25:57;;;;;;;6.32;2.00;;;;;;;10.40;33.02;98777.78;4439036;32;20077;-95
2022/04/18 03:28:22;;;;;;;5.70;1.80;;;;;;;10.52;32.70;98776.28;4440049;32;20128;-95
2022/04/18 03:30:48;;;;;;;8.25;2.30;;;;;;;10.36;32.93;98777.09;4441784;32;20473;-95
2022/04/18 03:33:13;;;;;;;6.78;2.00;;;;;;;10.15;33.11;98775.59;4427868;32;20174;-94
2022/04/18 03:39:50;;;;;;;6.78;2.20;;;;;;;10.26;33.04;98772.38;4441782;32;20155;-95
2022/04/18 03:41:08;;;;;;;6.55;2.08;;;;;;;9.91;33.41;98772.44;4442100;32;20116;-95
2022/04/18 03:43:35;;;;;;;7.53;2.15;;;;;;;10.01;33.38;98776.31;4440532;32;20129;-95
2022/04/18 03:46:01;;;;;;;6.53;2.10;;;;;;;10.11;33.36;98769.62;4441887;32;20626;-94
2022/04/18 03:48:26;;;;;;;6.05;1.87;;;;;;;10.07;33.46;98765.47;4441461;32;20109;-94
2022/04/18 03:50:52;;;;;;;5.78;2.00;;;;;;;10.10;33.60;98765.31;4440501;32;20106;-94
2022/04/18 03:53:17;;;;;;;6.87;2.25;;;;;;;10.10;33.48;98757.41;4441611;32;20110;-94
2022/04/18 03:55:42;;;;;;;7.95;2.20;;;;;;;10.15;33.42;98752.75;4442052;32;20085;-94
2022/04/18 03:58:08;;;;;;;6.90;2.08;;;;;;;10.21;33.24;98757.66;4441444;32;20422;-94
2022/04/18 04:00:35;;;;;;;6.47;2.10;;;;;;;10.19;33.31;98750.78;4441462;32;20115;-94
2022/04/18 04:03:00;;;;;;;7.45;2.30;;;;;;;10.15;33.48;98750.09;4440400;32;20436;-94
2022/04/18 04:05:25;;;;;;;6.30;2.20;;;;;;;10.16;33.67;98743.94;4427273;32;20239;-94
2022/04/18 04:07:51;;;;;;;7.12;2.12;;;;;;;10.13;33.77;98749.34;4441287;32;20494;-93
2022/04/18 04:10:16;;;;;;;6.82;2.37;;;;;;;9.75;33.92;98760.09;4440118;32;20093;-94
2022/04/18 04:12:42;;;;;;;5.62;1.90;;;;;;;9.79;34.17;98751.13;4440032;32;20115;-94
2022/04/18 04:15:07;;;;;;;7.85;3.22;;;;;;;9.72;34.37;98744.47;4441300;32;20089;-93
2022/04/18 04:17:33;;;;;;;6.10;2.22;;;;;;;9.56;34.24;98757.56;4441263;32;20097;-93
2022/04/18 04:19:58;;;;;;;7.03;2.40;;;;;;;9.91;33.79;98761.91;4440138;32;20152;-93
2022/04/18 04:22:24;;;;;;;8.40;2.60;;;;;;;9.89;33.78;98755.88;4441281;32;20138;-93
2022/04/18 04:24:49;;;;;;;7.10;2.35;;;;;;;9.57;34.33;98763.69;4439839;32;20101;-93
2022/04/18 04:27:14;;;;;;;7.07;2.50;;;;;;;9.75;34.15;98756.63;4441241;32;20115;-94
2022/04/18 04:29:40;;;;;;;7.12;2.17;;;;;;;9.97;33.93;98751.94;4440085;32;20117;-94
2022/04/18 04:32:06;;;;;;;7.82;1.98;;;;;;;10.08;33.88;98745.25;4439785;32;20133;-95
2022/04/18 04:34:31;;;;;;;6.37;2.30;;;;;;;10.11;34.25;98750.37;4441148;32;20119;-93
2022/04/18 04:36:56;;;;;;;8.00;1.95;;;;;;;9.97;34.31;98748.47;4441187;32;20396;-93
2022/04/18 04:39:22;;;;;;;6.22;2.00;;;;;;;10.25;33.85;98753.09;4439735;32;20105;-94
2022/04/18 04:41:47;;;;;;;6.50;2.40;;;;;;;10.26;33.88;98746.91;4440011;32;20120;-94
2022/04/18 04:44:13;;;;;;;8.25;2.25;;;;;;;10.31;34.03;98751.94;4443186;32;20089;-95
2022/04/18 04:46:38;;;;;;;6.43;2.10;;;;;;;10.28;33.41;98752.94;4446887;32;20093;-95
2022/04/18 04:49:03;;;;;;;8.25;2.50;;;;;;;10.36;33.64;98753.41;4446612;32;20092;-96
2022/04/18 04:51:29;;;;;;;6.93;2.22;;;;;;;10.42;33.47;98752.22;4445958;32;20112;-95
2022/04/18 04:53:55;;;;;;;7.43;2.10;;;;;;;10.57;34.06;98743.47;4446933;32;20134;-96
2022/04/18 04:56:23;;;;;;;8.35;2.10;;;;;;;10.24;33.96;98747.00;4448322;32;20062;-96
2022/04/18 04:58:49;;;;;;;7.55;2.45;;;;;;;10.38;33.84;98743.63;4450705;32;20501;-96
2022/04/18 05:01:15;;;;;;;6.70;2.00;;;;;;;10.60;33.80;98735.41;4441998;32;20061;-95
2022/04/18 05:03:41;;;;;;;7.43;2.47;;;;;;;10.68;33.55;98734.13;4441955;32;20085;-94
2022/04/18 05:06:07;;;;;;;7.85;2.50;;;;;;;10.70;33.88;98741.03;4445041;32;20094;-95
2022/04/18 05:08:32;;;;;;;8.80;2.40;;;;;;;10.78;33.73;98736.16;4444423;32;20721;-96
2022/04/18 05:11:00;;;;;;;6.55;2.17;;;;;;;10.98;33.16;98739.47;4442839;32;20085;-95
2022/04/18 05:13:27;;;;;;;7.20;2.42;;;;;;;10.78;33.19;98736.16;4439827;32;20510;-95
2022/04/18 05:15:52;;;;;;;5.80;1.98;;;;;;;10.79;33.58;98740.47;4441044;32;20207;-96
2022/04/18 05:18:17;;;;;;;6.28;2.00;;;;;;;10.98;33.66;98737.66;4439722;32;20475;-95
2022/04/18 05:20:45;;;;;;;9.65;2.45;;;;;;;10.87;33.75;98739.22;4431926;32;20112;-96
2022/04/18 05:23:11;;;;;;;5.67;2.07;;;;;;;10.81;33.72;98743.87;4449735;32;20084;-96
2022/04/18 05:25:37;;;;;;;7.40;2.33;;;;;;;11.05;33.88;98735.53;4436607;32;20113;-95
2022/04/18 05:28:03;;;;;;;8.73;1.90;;;;;;;11.10;33.57;98736.09;4450627;32;20098;-96
2022/04/18 05:30:28;;;;;;;8.50;2.35;;;;;;;11.23;33.62;98738.91;4441165;32;20112;-95
2022/04/18 05:32:54;;;;;;;6.55;2.22;;;;;;;11.24;33.81;98726.56;4445438;32;20108;-95
2022/04/18 05:35:20;;;;;;;6.45;2.12;;;;;;;11.27;33.14;98729.03;4447466;32;20097;-95
2022/04/18 05:37:46;;;;;;;8.48;2.78;;;;;;;11.34;32.51;98731.22;4449092;32;20399;-95
2022/04/18 05:40:12;;;;;;;7.47;2.20;;;;;;;11.54;32.83;98729.19;4447121;32;20774;-96
2022/04/18 05:42:37;;;;;;;8.32;2.37;;;;;;;11.64;32.92;98726.84;4447174;32;20108;-95
2022/04/18 05:45:03;;;;;;;6.75;2.08;;;;;;;11.77;33.30;98727.81;4443157;32;20400;-95
2022/04/18 05:47:29;;;;;;;7.37;2.17;;;;;;;11.67;32.32;98731.94;4442387;32;20128;-95
2022/04/18 05:49:54;;;;;;;7.57;2.37;;;;;;;11.56;32.01;98730.78;4440546;32;20115;-94
2022/04/18 05:52:20;;;;;;;6.95;2.20;;;;;;;11.75;31.78;98730.53;4439809;32;20124;-93
2022/04/18 05:54:45;;;;;;;7.35;2.28;;;;;;;11.78;32.06;98726.84;4440621;32;20362;-93
2022/04/18 05:57:11;;;;;;;7.32;2.17;;;;;;;11.79;31.83;98731.19;4439397;32;20132;-94
2022/04/18 05:59:36;;;;;;;8.10;2.53;;;;;;;11.84;31.81;98726.50;4439481;32;20088;-94
2022/04/18 06:02:02;;;;;;;8.27;2.55;;;;;;;11.92;31.76;98731.34;4440842;32;20104;-95
2022/04/18 06:04:27;;;;;;;7.47;2.37;;;;;;;11.94;31.61;98734.75;4439642;32;20105;-94
2022/04/18 06:06:53;;;;;;;9.02;2.42;;;;;;;12.05;32.02;98734.91;4440742;32;20147;-93
2022/04/18 06:09:18;;;;;;;9.63;2.40;;;;;;;12.09;31.66;98732.94;4439393;32;20111;-94
2022/04/18 06:11:44;;;;;;;9.77;2.58;;;;;;;11.92;30.77;98734.81;4439336;32;20086;-94
2022/04/18 06:14:09;;;;;;;7.85;2.60;;;;;;;11.96;31.46;98730.22;4440532;32;20126;-95
2022/04/18 06:16:34;;;;;;;8.55;2.40;;;;;;;12.16;31.94;98731.62;4440518;32;20090;-95
2022/04/18 06:19:00;;;;;;;7.45;2.40;;;;;;;12.13;30.93;98734.44;4440540;32;20455;-93
2022/04/18 06:21:25;;;;;;;9.10;2.70;;;;;;;12.18;31.00;98735.84;4440988;32;20131;-94
2022/04/18 06:23:51;;;;;;;7.47;2.20;;;;;;;12.24;30.82;98726.69;4442498;32;20353;-96
2022/04/18 06:26:16;;;;;;;7.28;2.35;;;;;;;12.34;30.79;98727.84;4441889;32;20131;-93
2022/04/18 06:28:42;;;;;;;8.00;2.40;;;;;;;12.46;30.89;98725.34;4426702;32;20125;-94
2022/04/18 06:31:07;;;;;;;7.32;2.53;;;;;;;12.61;30.82;98723.53;4440761;32;20108;-95
2022/04/18 06:33:34;;;;;;;7.18;2.30;;;;;;;12.78;30.54;98726.78;4441815;32;20139;-95
2022/04/18 06:36:01;;;;;;;7.87;2.30;;;;;;;12.85;29.64;98726.41;4440573;32;20453;-92
2022/04/18 06:38:28;;;;;;;8.52;2.70;;;;;;;12.87;30.12;98729.78;4439388;32;20573;-94
2022/04/18 06:40:57;;;;;;;7.73;2.47;;;;;;;12.42;30.35;98723.84;4441594;32;20077;-94
2022/04/18 06:43:22;;;;;;;7.93;2.67;;;;;;;12.53;30.32;98727.50;4442567;32;20109;-95
2022/04/18 06:45:48;;;;;;;8.70;2.58;;;;;;;12.62;30.19;98723.44;4442673;32;20120;-95
2022/04/18 06:48:13;;;;;;;8.00;2.50;;;;;;;12.69;29.76;98719.47;4441868;32;20085;-94
2022/04/18 06:50:39;;;;;;;8.73;2.60;;;;;;;12.81;29.83;98722.28;4440819;32;20086;-95
2022/04/18 06:53:05;;;;;;;5.95;2.12;;;;;;;12.92;29.99;98722.41;4441653;32;20074;-94
2022/04/18 06:56:58;;;;;;;7.72;2.30;;;;;;;13.08;29.95;98728.37;4441406;32;20123;-94
2022/04/18 06:58:15;;;;;;;7.75;2.33;;;;;;;13.20;28.77;98728.53;4441194;32;20081;-94
2022/04/18 07:00:41;;;;;;;7.65;2.20;;;;;;;12.60;29.86;98735.91;4442523;32;20440;-96
2022/04/18 07:03:06;;;;;;;6.43;1.90;;;;;;;12.59;30.33;98729.78;4445983;32;20102;-96
2022/04/18 07:05:31;;;;;;;6.37;2.05;;;;;;;13.01;30.45;98724.44;4446301;32;20445;-96
2022/04/18 07:07:57;;;;;;;5.07;1.83;;;;;;;13.25;29.75;98726.41;4443456;32;20081;-96
2022/04/18 07:10:22;;;;;;;6.07;1.92;;;;;;;13.50;29.09;98723.88;4442178;32;20108;-96
2022/04/18 07:12:48;;;;;;;7.87;2.40;;;;;;;13.75;28.30;98722.16;4442224;32;20097;-96
2022/04/18 07:15:13;;;;;;;6.00;2.10;;;;;;;13.96;26.69;98719.84;4444256;32;20490;-95
2022/04/18 07:17:38;;;;;;;5.68;2.10;;;;;;;13.98;26.66;98722.41;4441681;32;20094;-96
2022/04/18 07:20:04;;;;;;;9.43;2.15;;;;;;;13.78;27.22;98711.38;4445765;32;20418;-95
2022/04/18 07:22:30;;;;;;;8.13;2.30;;;;;;;13.66;27.34;98721.03;4446885;32;20097;-95
2022/04/18 07:24:59;;;;;;;7.35;2.25;;;;;;;13.54;27.75;98724.47;4447041;32;20057;-95
2022/04/18 07:27:24;;;;;;;8.75;2.30;;;;;;;13.46;28.23;98718.88;4445143;32;20136;-96
2022/04/18 07:29:50;;;;;;;6.25;2.08;;;;;;;13.55;28.56;98720.91;4442328;32;20452;-96
2022/04/18 07:32:16;;;;;;;6.45;2.10;;;;;;;13.52;28.53;98721.09;4442763;32;20376;-96
2022/04/18 07:34:41;;;;;;;6.72;2.08;;;;;;;13.51;28.32;98719.41;4439731;32;20089;-96
2022/04/18 07:37:06;;;;;;;6.65;2.15;;;;;;;13.39;27.79;98722.91;4440169;32;20401;-94
2022/04/18 07:39:32;;;;;;;6.82;2.08;;;;;;;13.44;27.82;98718.13;4443020;32;20106;-96
2022/04/18 07:41:57;;;;;;;8.50;2.20;;;;;;;13.45;27.89;98715.38;4447979;32;20097;-96
2022/04/18 07:44:22;;;;;;;7.65;2.37;;;;;;;12.63;29.39;98716.34;4446784;32;20097;-96
2022/04/18 07:46:48;;;;;;;8.32;2.40;;;;;;;12.62;29.81;98715.50;4444020;32;20112;-95
2022/04/18 07:49:13;;;;;;;7.68;2.40;;;;;;;12.57;30.48;98718.47;4443044;32;20472;-96
2022/04/18 07:51:40;;;;;;;7.53;2.37;;;;;;;12.74;30.37;98721.81;4431736;32;20151;-96
2022/04/18 07:54:08;;;;;;;7.53;2.40;;;;;;;13.02;30.37;98720.00;4450082;32;20083;-93
2022/04/18 07:56:34;;;;;;;8.45;2.62;;;;;;;13.13;30.77;98714.84;4446141;32;20066;-94
2022/04/18 07:59:00;;;;;;;7.65;2.28;;;;;;;13.39;30.80;98712.31;4444808;32;20085;-96
2022/04/18 08:01:25;;;;;;;7.25;2.47;;;;;;;13.79;30.06;98702.50;4442626;32;20154;-96
2022/04/18 08:03:51;;;;;;;8.30;2.65;;;;;;;14.06;28.78;98701.50;4446020;32;20106;-96
2022/04/18 08:06:17;;;;;;;9.75;2.67;;;;;;;14.34;28.21;98698.59;4443788;32;20141;-87
2022/04/18 08:08:43;;;;;;;7.10;2.22;;;;;;;14.55;28.03;98698.03;4439587;32;20452;-94
2022/04/18 08:11:17;;;;;;;7.22;2.50;;;;;;;14.72;28.56;98692.38;4440705;32;20101;-93
2022/04/18 08:13:47;;;;;;;8.18;2.33;;;;;;;14.92;27.98;98690.06;4438709;32;20106;-94
2022/04/18 08:16:13;;;;;;;8.00;2.55;;;;;;;15.04;26.84;98686.47;4440377;32;20507;-93
2022/04/18 08:18:39;;;;;;;7.22;2.58;;;;;;;15.07;26.56;98680.13;4439583;32;20432;-92
2022/04/18 08:21:08;;;;;;;7.87;2.28;;;;;;;15.34;26.63;98675.37;4456515;32;20098;-92
2022/04/18 08:23:34;;;;;;;8.35;3.10;;;;;;;15.48;26.33;98671.66;4456342;32;20109;-91
2022/04/18 08:26:00;;;;;;;9.65;2.40;;;;;;;15.44;25.92;98670.22;4456520;32;20101;-92
2022/04/18 08:28:26;;;;;;;6.82;2.37;;;;;;;15.51;26.44;98667.91;4442359;32;20077;-91
2022/04/18 08:30:53;;;;;;;9.45;2.97;;;;;;;15.65;25.93;98664.22;4442314;32;20164;-92
2022/04/18 08:33:18;;;;;;;8.20;2.70;;;;;;;15.71;25.91;98658.44;4442033;32;20148;-92
2022/04/18 08:35:44;;;;;;;7.45;2.40;;;;;;;15.54;26.50;98654.41;4445046;32;20155;-93
2022/04/18 08:38:09;;;;;;;8.40;3.17;;;;;;;15.67;26.15;98652.50;4420014;32;20389;-92
2022/04/18 08:40:36;;;;;;;7.47;2.60;;;;;;;15.68;25.40;98650.69;4456364;32;20101;-94
2022/04/18 08:43:02;;;;;;;7.32;2.70;;;;;;;15.50;25.48;98652.97;4429563;32;20106;-91
2022/04/18 08:45:28;;;;;;;8.43;2.83;;;;;;;15.21;25.24;98656.03;4456536;32;20129;-90
2022/04/18 08:53:28;;;;;;;9.35;2.47;;;;;;;14.15;26.86;98661.97;4456055;32;20587;-90
2022/04/18 08:55:54;;;;;;;6.85;2.60;;;;;;;14.38;27.67;98656.81;4457127;32;20589;-95
2022/04/18 08:58:23;;;;;;;8.38;2.53;;;;;;;14.30;27.55;98653.91;4442181;32;20111;-90
2022/04/18 09:00:49;;;;;;;8.13;2.72;;;;;;;14.34;27.23;98652.72;4455834;32;20104;-86
2022/04/18 09:03:15;;;;;;;6.82;2.33;;;;;;;14.46;26.04;98650.97;4441794;32;20116;-91
2022/04/18 09:05:41;;;;;;;8.43;3.00;;;;;;;14.45;26.37;98644.00;4429073;32;20105;-90
2022/04/18 09:08:08;;;;;;;8.52;2.90;;;;;;;14.37;25.86;98639.25;4441965;32;20117;-90
2022/04/18 09:10:35;;;;;;;7.57;2.40;;;;;;;14.32;27.06;98636.06;4441863;32;20139;-92
2022/04/18 09:13:09;;;;;;;7.65;2.58;;;;;;;14.57;26.52;98626.38;4420601;32;20386;-89
2022/04/18 09:15:46;;;;;;;8.35;2.95;;;;;;;14.69;26.40;98622.81;4455654;32;20123;-90
2022/04/18 09:18:17;;;;;;;7.40;2.50;;;;;;;14.79;25.72;98620.31;4441788;32;20146;-89
2022/04/18 09:20:49;;;;;;;7.18;2.47;;;;;;;14.72;25.97;98617.28;4442120;32;20105;-90
2022/04/18 09:23:27;;;;;;;6.90;2.30;;;;;;;14.78;25.27;98624.78;4441644;32;20173;-90
2022/04/18 09:25:53;;;;;;;9.17;2.13;;;;;;;14.73;25.49;98611.00;4441769;32;20112;-92
2022/04/18 09:28:23;;;;;;;6.70;2.35;;;;;;;14.83;24.72;98619.13;4455141;32;20106;-93
2022/04/18 09:30:56;;;;;;;8.07;2.60;;;;;;;14.96;24.17;98608.44;4441696;32;20109;-90
2022/04/18 09:33:21;;;;;;;7.55;2.50;;;;;;;14.82;24.81;98607.69;4455926;32;20111;-90
2022/04/18 09:35:47;;;;;;;9.68;2.47;;;;;;;14.83;24.71;98608.50;4428897;32;20089;-90
2022/04/18 09:38:16;;;;;;;5.68;2.10;;;;;;;14.91;24.77;98606.13;4456045;32;20127;-91
2022/04/18 09:40:43;;;;;;;8.57;2.45;;;;;;;15.02;24.31;98608.81;4441883;32;20093;-91
2022/04/18 09:43:08;;;;;;;5.78;2.25;;;;;;;15.06;24.52;98597.00;4426405;32;20476;-92
2022/04/18 09:45:34;;;;;;;6.35;2.00;;;;;;;15.11;24.38;98599.31;4454242;32;20105;-92
2022/04/18 09:48:01;;;;;;;9.55;1.95;;;;;;;15.22;24.16;98591.41;4439129;32;80039;-89
2022/04/18 09:53:24;;;;;;;6.15;2.00;;;;;;;15.43;23.12;98580.94;4443650;32;20123;-90
2022/04/18 09:55:52;;;;;;;6.25;2.00;;;;;;;15.60;23.66;98579.59;4441542;32;20491;-92
2022/04/18 09:58:18;;;;;;;6.03;2.10;;;;;;;15.67;23.46;98572.84;4441422;32;20159;-91
2022/04/18 10:00:43;;;;;;;8.30;2.25;;;;;;;15.83;22.92;98572.50;4428696;32;20145;-90
2022/04/18 10:03:09;;;;;;;6.97;2.00;;;;;;;15.85;22.23;98575.87;4441567;32;20097;-92
2022/04/18 10:05:35;;;;;;;6.65;2.12;;;;;;;15.66;23.36;98570.28;4441441;32;20161;-92
2022/04/18 10:08:04;;;;;;;5.62;2.10;;;;;;;15.69;22.41;98564.75;4455719;32;20424;-92
2022/04/18 10:10:34;;;;;;;7.12;2.22;;;;;;;15.78;22.52;98569.38;4455593;32;20093;-91
2022/04/18 10:13:00;;;;;;;6.57;1.80;;;;;;;15.56;22.11;98567.53;4441385;32;20128;-91
2022/04/18 10:15:29;;;;;;;8.25;2.50;;;;;;;15.24;22.20;98567.37;4455395;32;20080;-91
2022/04/18 10:17:56;;;;;;;6.75;1.92;;;;;;;15.01;22.27;98569.13;4441527;32;20422;-92
2022/04/18 10:20:28;;;;;;;9.05;2.25;;;;;;;15.05;22.24;98571.47;4441427;32;20457;-92
2022/04/18 10:23:13;;;;;;;6.25;2.10;;;;;;;14.99;22.56;98568.41;4441277;32;20109;-91
2022/04/18 10:25:57;;;;;;;7.57;2.28;;;;;;;14.98;23.13;98566.75;4434208;32;20081;-87
2022/04/18 10:28:26;;;;;;;7.10;2.10;;;;;;;15.10;22.77;98564.00;4455298;32;20093;-84
2022/04/18 10:31:00;;;;;;;7.35;2.20;;;;;;;15.17;21.73;98558.22;4455262;32;20093;-84
2022/04/18 10:33:26;;;;;;;6.10;1.85;;;;;;;15.17;22.00;98559.06;4441325;32;20146;-83
2022/04/18 10:35:59;;;;;;;6.50;1.80;;;;;;;15.32;22.01;98547.25;4455256;32;20456;-84
2022/04/18 10:38:26;;;;;;;7.32;1.80;;;;;;;15.50;21.94;98537.00;4427865;32;20085;-87
2022/04/18 10:41:14;;;;;;;6.97;2.28;;;;;;;15.64;22.34;98543.03;4441088;32;20532;-88
2022/04/18 10:43:58;;;;;;;7.25;2.00;;;;;;;15.75;21.48;98537.75;4442288;32;20093;-85
2022/04/18 10:46:24;;;;;;;7.55;2.22;;;;;;;15.86;21.69;98535.06;4440689;32;20114;-88
2022/04/18 10:49:00;;;;;;;5.75;2.00;;;;;;;15.77;20.85;98533.16;4440723;32;20089;-87
2022/04/18 10:51:31;;;;;;;5.47;1.80;;;;;;;15.80;20.85;98530.25;4438265;32;20167;-87
2022/04/18 10:54:08;;;;;;;5.95;1.80;;;;;;;15.82;21.57;98530.97;4454895;32;20104;-84
2022/04/18 10:56:47;;;;;;;6.37;2.12;;;;;;;15.96;21.40;98523.72;4441012;32;20092;-86
2022/04/18 10:59:14;;;;;;;8.43;2.00;;;;;;;16.19;21.21;98519.19;4440953;32;20111;-90
2022/04/18 11:01:40;;;;;;;6.53;1.70;;;;;;;16.49;20.25;98516.63;4440813;32;20109;-89
2022/04/18 11:04:12;;;;;;;4.80;1.77;;;;;;;16.20;19.62;98513.72;4440026;32;20200;-90
2022/04/18 11:06:38;;;;;;;6.62;1.98;;;;;;;16.61;19.12;98509.44;4440649;32;20119;-90
2022/04/18 11:09:13;;;;;;;6.22;1.80;;;;;;;16.65;19.76;98504.69;4440662;32;20345;-89
2022/04/18 11:11:55;;;;;;;7.65;2.10;;;;;;;16.82;20.16;98506.81;4431686;32;20178;-89
2022/04/18 11:14:51;;;;;;;5.37;1.95;;;;;;;16.97;19.61;98499.34;4440674;32;20168;-89
2022/04/18 11:17:28;;;;;;;5.82;1.92;;;;;;;16.73;19.42;98498.72;4428744;32;20426;-87
2022/04/18 11:19:54;;;;;;;7.97;2.15;;;;;;;16.77;20.10;98500.19;4454861;32;20513;-87
2022/04/18 11:22:21;;;;;;;7.65;2.03;;;;;;;16.83;20.09;98502.34;4440312;32;20157;-88
2022/04/18 11:24:53;;;;;;;6.93;1.80;;;;;;;16.92;18.82;98500.69;4427303;32;20147;-88
2022/04/18 11:27:18;;;;;;;5.75;1.80;;;;;;;16.85;19.24;98500.41;4440422;32;20097;-89
2022/04/18 11:29:46;;;;;;;6.57;2.22;;;;;;;16.37;19.62;98500.84;4454746;32;20217;-87
2022/04/18 11:32:16;;;;;;;5.70;2.12;;;;;;;16.23;19.90;98502.84;4440473;32;20120;-88
2022/04/18 11:34:44;;;;;;;6.45;1.92;;;;;;;16.31;20.20;98508.34;4454544;32;20093;-89
2022/04/18 11:37:12;;;;;;;6.28;2.10;;;;;;;16.40;20.48;98508.56;4440456;32;20101;-89
2022/04/18 11:39:46;;;;;;;5.87;1.83;;;;;;;16.44;20.08;98508.19;4442098;32;20081;-91
2022/04/18 11:42:27;;;;;;;5.05;1.73;;;;;;;16.17;20.19;98511.31;4428763;32;20117;-90
2022/04/18 11:44:54;;;;;;;6.62;1.92;;;;;;;16.29;20.43;98510.31;4440447;32;20101;-84
2022/04/18 11:47:28;;;;;;;6.37;1.80;;;;;;;16.22;19.83;98511.78;4427250;32;20097;-86
2022/04/18 11:49:55;;;;;;;4.50;1.40;;;;;;;16.03;20.87;98516.91;4454798;32;20097;-88